Time;durP1;ratioP1;P1;durP2;ratioP2;P2;SDS_P1;SDS_P2;PMS_P1;PMS_P2;Temp;Humidity;BMP_temperature;BMP_pressure;BME280_temperature;BME280_humidity;BME280_pressure;Samples;Min_cycle;Max_cycle;Signal;HPM_P1;HPM_P2
2023/09/16 00:00:09;;;;;;;5.05;3.40;;;;;;;18.54;65.21;92813.78;2057908;69;20146;-78
2023/09/16 00:02:36;;;;;;;7.03;3.50;;;;;;;18.49;65.28;92824.34;2057786;69;20178;-76
2023/09/16 00:05:03;;;;;;;5.72;3.30;;;;;;;18.49;65.44;92812.94;2057841;69;20141;-77
2023/09/16 00:07:29;;;;;;;4.35;3.50;;;;;;;18.40;66.07;92822.59;2054397;69;20580;-77
2023/09/16 00:09:56;;;;;;;4.68;3.35;;;;;;;18.46;65.48;92819.22;2054272;69;20200;-80
2023/09/16 00:12:24;;;;;;;5.93;3.60;;;;;;;18.49;65.04;92815.06;2054271;69;20593;-78
2023/09/16 00:14:50;;;;;;;4.43;3.53;;;;;;;18.48;65.11;92810.75;2058218;69;20153;-77
2023/09/16 00:17:16;;;;;;;4.05;3.42;;;;;;;18.44;65.35;92813.47;2058518;69;20157;-77
2023/09/16 00:19:41;;;;;;;6.90;3.38;;;;;;;18.34;66.68;92813.13;2058384;69;20134;-77
2023/09/16 00:22:10;;;;;;;4.78;3.08;;;;;;;18.34;66.00;92810.28;2058295;69;20173;-76
2023/09/16 00:24:36;;;;;;;5.90;3.45;;;;;;;18.29;66.03;92803.72;2054732;69;20203;-76
2023/09/16 00:27:03;;;;;;;4.60;3.75;;;;;;;18.18;66.73;92802.63;2054706;69;20165;-76
2023/09/16 00:29:29;;;;;;;5.20;3.53;;;;;;;18.18;66.36;92814.03;2054802;69;20223;-76
2023/09/16 00:31:56;;;;;;;5.68;3.95;;;;;;;18.14;65.79;92813.16;2052182;69;20197;-76
2023/09/16 00:34:22;;;;;;;5.82;3.70;;;;;;;18.07;66.25;92808.66;2054659;69;20146;-75
2023/09/16 00:36:49;;;;;;;4.25;3.25;;;;;;;18.17;65.45;92811.84;2054840;69;20225;-77
2023/09/16 00:39:16;;;;;;;5.18;3.50;;;;;;;18.20;66.01;92814.09;2054731;69;20148;-75
2023/09/16 00:41:42;;;;;;;5.53;4.05;;;;;;;18.08;66.24;92813.69;2052137;69;20150;-76
2023/09/16 00:44:10;;;;;;;5.47;3.55;;;;;;;17.96;66.13;92810.38;2054902;69;20527;-75
2023/09/16 00:46:37;;;;;;;5.05;3.67;;;;;;;17.95;66.95;92818.22;2058572;69;20643;-78
2023/09/16 00:49:03;;;;;;;3.95;3.45;;;;;;;18.02;65.96;92819.91;2051954;69;20169;-75
2023/09/16 00:51:30;;;;;;;5.00;3.30;;;;;;;18.02;65.87;92811.34;2058548;69;20160;-76
2023/09/16 00:53:57;;;;;;;4.13;3.67;;;;;;;18.10;65.60;92810.91;2058231;69;20235;-75
2023/09/16 00:56:27;;;;;;;4.00;3.42;;;;;;;17.95;65.19;92806.81;2058394;69;20548;-77
2023/09/16 00:58:58;;;;;;;5.75;3.45;;;;;;;18.01;65.92;92814.88;2058431;69;20646;-76
2023/09/16 01:01:25;;;;;;;7.20;3.70;;;;;;;17.93;66.21;92809.59;2058324;69;20169;-76
2023/09/16 01:03:52;;;;;;;4.57;3.47;;;;;;;17.88;66.59;92810.84;2058380;69;20130;-77
2023/09/16 01:06:19;;;;;;;5.05;3.63;;;;;;;17.86;66.74;92815.72;2054789;69;20616;-76
2023/09/16 01:08:47;;;;;;;7.82;5.47;;;;;;;17.73;66.60;92803.94;2054560;69;20153;-77
2023/09/16 01:11:14;;;;;;;7.78;6.72;;;;;;;17.88;65.58;92812.97;2058333;69;20172;-77
2023/09/16 01:13:41;;;;;;;10.93;5.70;;;;;;;17.68;66.85;92815.78;2054659;69;20173;-78
2023/09/16 01:16:32;;;;;;;10.40;5.90;;;;;;;17.43;67.80;92817.00;2056239;69;20150;-76
2023/09/16 01:19:11;;;;;;;6.90;4.95;;;;;;;17.44;68.21;92813.50;2061713;69;20618;-76
2023/09/16 01:21:38;;;;;;;7.22;5.20;;;;;;;17.45;68.09;92823.50;2061480;69;20173;-77
2023/09/16 01:24:23;;;;;;;8.45;5.28;;;;;;;17.46;68.54;92827.81;2057728;69;20152;-77
2023/09/16 01:26:49;;;;;;;7.85;5.20;;;;;;;17.40;68.44;92824.72;2061448;69;20165;-76
2023/09/16 01:29:20;;;;;;;6.35;5.20;;;;;;;17.50;67.93;92822.28;2058021;69;20161;-77
2023/09/16 01:31:46;;;;;;;6.28;4.40;;;;;;;17.47;67.49;92806.50;2061857;69;20597;-77
2023/09/16 01:34:40;;;;;;;5.47;4.82;;;;;;;17.17;69.34;92828.13;2061396;69;20184;-76
2023/09/16 01:37:09;;;;;;;7.35;4.40;;;;;;;17.34;68.00;92820.94;2061460;69;20138;-75
2023/09/16 01:39:35;;;;;;;7.10;4.22;;;;;;;17.20;69.09;92821.13;2057516;69;20168;-75
2023/09/16 01:42:03;;;;;;;5.68;4.18;;;;;;;17.22;68.95;92821.91;2055166;69;20173;-76
2023/09/16 01:44:29;;;;;;;7.43;4.28;;;;;;;17.12;69.09;92821.53;2057852;69;20149;-78
2023/09/16 01:46:55;;;;;;;4.80;3.75;;;;;;;17.23;68.53;92834.78;2057694;69;20141;-75
2023/09/16 01:49:21;;;;;;;7.13;3.97;;;;;;;17.23;68.72;92828.38;2061243;69;20207;-77
2023/09/16 01:51:47;;;;;;;5.40;4.05;;;;;;;17.18;69.10;92830.31;2061190;69;20160;-76
2023/09/16 01:54:13;;;;;;;7.30;3.40;;;;;;;17.10;70.27;92841.38;2057556;69;20172;-75
2023/09/16 01:56:39;;;;;;;7.25;4.40;;;;;;;17.13;69.46;92840.06;2061360;69;20168;-77
2023/09/16 01:59:04;;;;;;;6.22;3.83;;;;;;;17.09;69.41;92847.69;2061594;69;20215;-76
2023/09/16 02:01:30;;;;;;;7.57;3.50;;;;;;;17.07;69.65;92841.94;2057886;69;20593;-75
2023/09/16 02:03:56;;;;;;;5.35;3.88;;;;;;;17.08;69.99;92851.94;2058104;69;20133;-75
2023/09/16 02:06:21;;;;;;;7.43;3.38;;;;;;;17.01;70.09;92857.41;2061621;69;20169;-74
2023/09/16 02:08:48;;;;;;;5.15;3.40;;;;;;;16.92;70.85;92861.28;2057705;69;20157;-76
2023/09/16 02:11:15;;;;;;;7.20;3.47;;;;;;;17.01;70.08;92856.66;2058099;69;20169;-77
2023/09/16 02:13:41;;;;;;;4.45;3.30;;;;;;;16.92;70.29;92857.72;2065531;69;20160;-76
2023/09/16 02:16:13;;;;;;;4.07;3.55;;;;;;;16.94;69.99;92858.53;2064781;69;20145;-76
2023/09/16 02:18:39;;;;;;;7.38;3.65;;;;;;;16.95;69.51;92862.09;2065199;69;20146;-76
2023/09/16 02:21:07;;;;;;;6.00;3.75;;;;;;;16.95;69.22;92867.78;2065032;69;20152;-77
2023/09/16 02:23:33;;;;;;;5.95;3.90;;;;;;;16.91;69.80;92864.81;2065498;69;20153;-77
2023/09/16 02:26:02;;;;;;;6.53;4.10;;;;;;;16.83;69.82;92859.50;2065794;69;20122;-76
2023/09/16 02:28:28;;;;;;;5.72;3.55;;;;;;;16.68;70.21;92852.50;2063042;69;20157;-77
2023/09/16 02:30:54;;;;;;;7.20;4.32;;;;;;;16.74;69.51;92872.66;2068156;69;20145;-76
2023/09/16 02:33:20;;;;;;;5.53;3.55;;;;;;;16.80;69.49;92877.13;2062840;69;20133;-77
2023/09/16 02:35:46;;;;;;;7.57;3.75;;;;;;;16.76;68.80;92886.22;2059155;69;20137;-76
2023/09/16 02:38:13;;;;;;;4.20;3.50;;;;;;;16.67;70.47;92875.88;2059031;69;20149;-77
2023/09/16 02:40:42;;;;;;;5.45;3.58;;;;;;;16.79;70.34;92879.25;2062566;69;20534;-78
2023/09/16 02:43:09;;;;;;;5.05;3.50;;;;;;;16.85;69.31;92868.13;2059225;69;20597;-76
2023/09/16 02:45:40;;;;;;;5.28;3.47;;;;;;;16.76;68.94;92867.06;2062745;69;20153;-77
2023/09/16 02:48:06;;;;;;;5.70;3.35;;;;;;;16.88;68.49;92866.09;2062404;69;20149;-77
2023/09/16 02:50:39;;;;;;;4.03;3.30;;;;;;;16.95;68.29;92865.69;2062168;69;20148;-79
2023/09/16 02:53:05;;;;;;;5.70;2.92;;;;;;;16.98;68.51;92860.81;2058390;69;20157;-77
2023/09/16 02:55:32;;;;;;;7.43;3.60;;;;;;;16.85;68.89;92867.38;2058057;69;20568;-77
2023/09/16 02:57:59;;;;;;;3.90;3.30;;;;;;;16.92;69.25;92860.56;2055448;69;20165;-76
2023/09/16 03:00:25;;;;;;;6.30;3.50;;;;;;;16.88;69.13;92863.97;2061879;69;20155;-76
2023/09/16 03:02:51;;;;;;;3.88;3.35;;;;;;;16.89;68.47;92851.22;2055420;69;20223;-78
2023/09/16 03:05:17;;;;;;;6.93;3.50;;;;;;;16.81;68.87;92859.41;2055359;69;20153;-76
2023/09/16 03:07:44;;;;;;;6.85;3.70;;;;;;;16.83;69.66;92864.47;2058159;69;20161;-77
2023/09/16 03:10:11;;;;;;;4.95;3.38;;;;;;;16.85;69.86;92856.00;2055263;69;20156;-76
2023/09/16 03:12:38;;;;;;;4.43;3.60;;;;;;;16.81;69.58;92861.53;2058205;69;20219;-76
2023/09/16 03:15:05;;;;;;;4.07;3.50;;;;;;;16.81;69.52;92855.84;2058173;69;20157;-76
2023/09/16 03:17:30;;;;;;;4.97;3.45;;;;;;;16.69;70.33;92851.13;2055376;69;20129;-79
2023/09/16 03:19:56;;;;;;;5.68;3.50;;;;;;;16.78;69.07;92849.34;2058085;69;20157;-77
2023/09/16 03:22:22;;;;;;;4.78;3.20;;;;;;;16.89;69.35;92850.50;2061813;69;20554;-76
2023/09/16 03:24:48;;;;;;;5.03;3.45;;;;;;;16.84;69.81;92848.88;2057963;69;20145;-81
2023/09/16 03:27:14;;;;;;;5.25;3.17;;;;;;;16.81;69.67;92839.50;2058211;69;20149;-76
2023/09/16 03:29:40;;;;;;;3.67;3.00;;;;;;;16.77;69.55;92842.22;2058035;69;20223;-78
2023/09/16 03:32:05;;;;;;;4.03;3.10;;;;;;;16.77;68.24;92842.22;2061859;69;20225;-78
2023/09/16 03:34:32;;;;;;;7.07;3.17;;;;;;;16.74;69.12;92834.97;2055297;69;20153;-76
2023/09/16 03:36:59;;;;;;;4.15;3.22;;;;;;;16.88;68.24;92840.50;2057928;69;20149;-78
2023/09/16 03:39:24;;;;;;;4.68;3.40;;;;;;;16.77;68.04;92833.69;2061405;69;20161;-77
2023/09/16 03:41:50;;;;;;;3.80;3.00;;;;;;;16.84;67.22;92843.91;2057926;69;20157;-78
2023/09/16 03:44:17;;;;;;;6.43;2.80;;;;;;;16.82;68.14;92835.31;2058032;69;20236;-77
2023/09/16 03:46:43;;;;;;;5.57;2.92;;;;;;;16.75;69.37;92833.59;2057928;69;20167;-76
2023/09/16 03:49:09;;;;;;;6.32;3.22;;;;;;;16.78;68.91;92832.31;2058047;69;20173;-77
2023/09/16 03:51:37;;;;;;;5.63;3.20;;;;;;;16.67;69.80;92833.97;2058422;69;20259;-76
2023/09/16 03:54:04;;;;;;;3.47;3.17;;;;;;;16.62;69.52;92838.03;2058369;69;20171;-76
2023/09/16 03:56:30;;;;;;;4.65;3.55;;;;;;;16.52;69.24;92838.34;2058489;69;20593;-78
2023/09/16 03:58:55;;;;;;;7.45;3.33;;;;;;;16.59;68.65;92830.09;2058474;69;20144;-78
2023/09/16 04:01:24;;;;;;;3.63;3.25;;;;;;;16.57;70.06;92832.84;2058450;69;20151;-79
2023/09/16 04:03:51;;;;;;;4.65;3.50;;;;;;;16.55;69.50;92833.50;2062399;69;20508;-80
2023/09/16 04:06:17;;;;;;;4.38;3.30;;;;;;;16.61;69.30;92830.16;2062203;69;20149;-76
2023/09/16 04:08:44;;;;;;;4.63;3.30;;;;;;;16.53;70.16;92819.19;2055599;69;20145;-77
2023/09/16 04:11:11;;;;;;;4.10;2.97;;;;;;;16.56;69.13;92823.56;2058467;69;20145;-76
2023/09/16 04:13:37;;;;;;;5.72;3.40;;;;;;;16.35;69.89;92824.13;2055671;69;20149;-77
2023/09/16 04:16:03;;;;;;;5.57;3.50;;;;;;;16.27;70.23;92824.53;2062059;69;20167;-76
2023/09/16 04:18:29;;;;;;;5.25;3.30;;;;;;;16.47;69.86;92819.66;2062213;69;20146;-77
2023/09/16 04:20:55;;;;;;;5.22;3.20;;;;;;;16.35;68.96;92816.31;2058329;69;20157;-77
2023/09/16 04:23:22;;;;;;;7.18;3.92;;;;;;;16.23;69.67;92816.56;2061995;69;20568;-77
2023/09/16 04:25:56;;;;;;;5.38;3.15;;;;;;;16.39;69.56;92818.59;2058354;69;20156;-77
2023/09/16 04:28:23;;;;;;;4.80;3.50;;;;;;;16.40;69.20;92817.22;2055459;69;20149;-79
2023/09/16 04:30:50;;;;;;;5.75;3.78;;;;;;;16.30;68.87;92814.69;2062011;69;20673;-79
2023/09/16 04:33:17;;;;;;;5.35;3.28;;;;;;;16.25;69.83;92816.63;2061887;69;20203;-77
2023/09/16 04:35:45;;;;;;;5.70;3.72;;;;;;;15.91;69.42;92818.03;2061952;69;20161;-79
2023/09/16 04:38:13;;;;;;;4.22;3.30;;;;;;;16.13;69.95;92823.94;2058100;69;20152;-78
2023/09/16 04:40:44;;;;;;;6.22;3.80;;;;;;;16.13;70.13;92821.81;2055270;69;20215;-79
2023/09/16 04:43:13;;;;;;;5.20;3.20;;;;;;;16.12;69.25;92820.34;2055548;69;20152;-81
2023/09/16 04:45:44;;;;;;;5.80;3.22;;;;;;;16.02;69.38;92826.31;2058280;69;20145;-81
2023/09/16 04:48:14;;;;;;;4.00;2.83;;;;;;;16.09;68.72;92824.50;2061837;69;20133;-78
2023/09/16 04:50:42;;;;;;;5.22;3.20;;;;;;;16.27;67.65;92827.38;2058224;69;20265;-79
2023/09/16 04:53:09;;;;;;;7.57;3.20;;;;;;;16.36;67.63;92832.00;2061779;69;20685;-78
2023/09/16 04:55:37;;;;;;;3.55;3.20;;;;;;;16.16;69.32;92831.88;2058026;69;20161;-78
2023/09/16 04:58:03;;;;;;;6.88;3.63;;;;;;;16.13;68.61;92829.63;2058527;69;20165;-79
2023/09/16 05:00:33;;;;;;;4.97;3.70;;;;;;;16.12;69.05;92825.28;2062300;69;20537;-83
2023/09/16 05:03:00;;;;;;;4.75;3.30;;;;;;;16.15;69.34;92824.75;2055749;69;20214;-79
2023/09/16 05:05:27;;;;;;;4.95;3.50;;;;;;;16.10;69.51;92828.06;2058178;69;20152;-77
2023/09/16 05:07:52;;;;;;;5.00;3.15;;;;;;;16.05;69.65;92838.50;2058316;69;20141;-78
2023/09/16 05:10:18;;;;;;;6.05;3.20;;;;;;;16.10;69.51;92836.56;2055296;69;20165;-80
2023/09/16 05:12:44;;;;;;;4.68;3.20;;;;;;;16.10;70.16;92842.25;2058253;69;20152;-80
2023/09/16 05:15:10;;;;;;;6.15;3.10;;;;;;;16.10;70.21;92836.56;2058258;69;20195;-82
2023/09/16 05:17:37;;;;;;;4.10;3.50;;;;;;;15.98;69.50;92829.00;2058403;69;20134;-80
2023/09/16 05:20:04;;;;;;;4.28;3.50;;;;;;;16.08;69.75;92830.78;2061852;69;20173;-78
2023/09/16 05:22:30;;;;;;;5.50;3.35;;;;;;;16.04;70.49;92834.22;2058372;69;20639;-80
2023/09/16 05:24:56;;;;;;;6.57;3.25;;;;;;;16.01;69.73;92830.53;2058128;69;20237;-80
2023/09/16 05:27:22;;;;;;;4.15;3.22;;;;;;;16.09;70.07;92823.75;2062022;69;20137;-77
2023/09/16 05:29:52;;;;;;;7.68;4.00;;;;;;;15.95;70.69;92829.56;2058239;69;20145;-77
2023/09/16 05:32:18;;;;;;;5.15;3.28;;;;;;;16.09;70.45;92833.00;2058259;69;20133;-77
2023/09/16 05:34:44;;;;;;;4.68;3.88;;;;;;;15.96;70.60;92831.75;2058217;69;20159;-76
2023/09/16 05:37:10;;;;;;;5.32;4.05;;;;;;;15.90;70.65;92842.84;2058116;69;20215;-77
2023/09/16 05:39:36;;;;;;;6.07;3.60;;;;;;;15.95;70.19;92844.50;2057133;69;20165;-79
2023/09/16 05:42:03;;;;;;;6.80;3.70;;;;;;;15.99;70.27;92844.66;2057440;69;20627;-77
2023/09/16 05:44:29;;;;;;;5.30;3.22;;;;;;;15.99;70.61;92844.66;2058016;69;20150;-78
2023/09/16 05:46:58;;;;;;;5.63;3.35;;;;;;;16.03;70.34;92849.75;2057986;69;20181;-78
2023/09/16 05:49:25;;;;;;;5.32;3.60;;;;;;;16.02;69.83;92848.31;2057936;69;20270;-78
2023/09/16 05:51:52;;;;;;;7.90;4.07;;;;;;;16.01;70.15;92849.69;2057297;69;20145;-81
2023/09/16 05:54:18;;;;;;;6.05;3.85;;;;;;;16.05;70.34;92847.03;2057210;69;20149;-76
2023/09/16 05:56:46;;;;;;;4.72;3.40;;;;;;;16.07;70.01;92852.06;2057344;69;20146;-77
2023/09/16 05:59:14;;;;;;;5.18;3.20;;;;;;;16.17;69.60;92841.13;2057476;69;20154;-77
2023/09/16 06:01:40;;;;;;;3.42;2.80;;;;;;;16.24;68.26;92842.84;2057907;69;20529;-79
2023/09/16 06:04:08;;;;;;;4.13;3.22;;;;;;;16.17;68.56;92838.28;2057434;69;20141;-78
2023/09/16 06:06:34;;;;;;;5.90;2.70;;;;;;;16.09;68.93;92835.13;2057348;69;20533;-78
2023/09/16 06:09:01;;;;;;;7.05;3.60;;;;;;;16.04;69.57;92837.06;2057224;69;20142;-77
2023/09/16 06:11:28;;;;;;;5.70;3.33;;;;;;;16.13;69.72;92836.03;2057905;69;20316;-77
2023/09/16 06:13:55;;;;;;;5.13;3.08;;;;;;;16.17;70.01;92830.53;2057469;69;20247;-77
2023/09/16 06:16:21;;;;;;;3.70;2.50;;;;;;;16.31;69.79;92838.91;2057463;69;20170;-76
2023/09/16 06:18:47;;;;;;;3.17;2.40;;;;;;;16.33;69.74;92836.13;2057592;69;20172;-76
2023/09/16 06:21:13;;;;;;;2.72;2.50;;;;;;;16.23;69.45;92839.28;2057494;69;20165;-77
2023/09/16 06:23:39;;;;;;;4.35;2.80;;;;;;;16.40;69.05;92837.09;2057451;69;20146;-76
2023/09/16 06:26:04;;;;;;;4.22;3.22;;;;;;;16.47;68.84;92833.16;2057489;69;20212;-77
2023/09/16 06:28:33;;;;;;;4.13;3.20;;;;;;;16.37;68.75;92839.16;2057402;69;20157;-77
2023/09/16 06:30:58;;;;;;;3.55;2.78;;;;;;;16.33;68.43;92827.63;2054611;69;20146;-77
2023/09/16 06:33:24;;;;;;;3.00;2.55;;;;;;;16.20;67.91;92834.88;2057154;69;20138;-76
2023/09/16 06:35:50;;;;;;;3.42;2.65;;;;;;;16.40;67.42;92825.75;2054433;69;20157;-81
2023/09/16 06:38:16;;;;;;;4.20;2.80;;;;;;;16.42;67.41;92825.84;2058743;69;20161;-77
2023/09/16 06:40:42;;;;;;;3.20;2.70;;;;;;;16.57;66.99;92818.63;2061459;69;20145;-77
2023/09/16 06:43:07;;;;;;;3.92;2.83;;;;;;;16.53;67.95;92819.91;2057904;69;20149;-81
2023/09/16 06:45:39;;;;;;;4.50;2.75;;;;;;;16.66;65.82;92815.44;2057824;69;20145;-78
2023/09/16 06:48:05;;;;;;;4.28;2.63;;;;;;;16.62;67.98;92823.09;2058103;69;20553;-78
2023/09/16 06:50:30;;;;;;;3.15;2.60;;;;;;;16.63;68.91;92818.84;2061371;69;20341;-81
2023/09/16 06:52:56;;;;;;;4.93;2.95;;;;;;;16.51;69.20;92814.16;2061569;69;20180;-77
2023/09/16 06:55:22;;;;;;;3.40;2.55;;;;;;;16.57;69.71;92813.66;2061528;69;20593;-82
2023/09/16 06:57:48;;;;;;;3.10;2.65;;;;;;;16.72;67.16;92817.84;2061597;69;20238;-79
2023/09/16 07:00:15;;;;;;;3.92;3.00;;;;;;;16.74;68.27;92829.28;2061579;69;20149;-76
2023/09/16 07:02:40;;;;;;;3.50;2.90;;;;;;;16.77;66.54;92825.16;2061767;69;20150;-76
2023/09/16 07:05:06;;;;;;;3.95;3.10;;;;;;;16.70;66.91;92824.16;2061935;69;20144;-77
2023/09/16 07:07:31;;;;;;;5.30;3.13;;;;;;;16.75;67.46;92825.78;2057985;69;20478;-77
2023/09/16 07:09:57;;;;;;;5.00;2.67;;;;;;;16.65;67.76;92824.63;2057983;69;20153;-77
2023/09/16 07:12:24;;;;;;;4.65;2.90;;;;;;;16.64;68.08;92823.91;2058162;69;20164;-81
2023/09/16 07:14:50;;;;;;;4.43;2.85;;;;;;;16.31;68.92;92823.94;2058227;69;20156;-78
2023/09/16 07:17:16;;;;;;;4.05;3.03;;;;;;;16.89;67.94;92837.00;2061621;69;20144;-78
2023/09/16 07:19:42;;;;;;;4.82;3.05;;;;;;;17.29;67.83;92822.91;2061579;69;20169;-80
2023/09/16 07:22:08;;;;;;;7.70;3.80;;;;;;;17.38;68.32;92824.66;2061653;69;20241;-80
2023/09/16 07:24:35;;;;;;;6.25;3.47;;;;;;;17.73;66.79;92818.16;2061262;69;20169;-80
2023/09/16 07:27:03;;;;;;;5.75;3.30;;;;;;;17.85;66.06;92820.69;2061573;69;20189;-82
2023/09/16 07:29:28;;;;;;;4.65;3.10;;;;;;;18.35;65.67;92814.59;2061566;69;20592;-78
2023/09/16 07:31:55;;;;;;;4.20;3.10;;;;;;;18.81;65.95;92812.56;2061371;69;20153;-79
2023/09/16 07:34:22;;;;;;;7.20;4.63;;;;;;;18.81;63.74;92806.13;2061110;69;20217;-81
2023/09/16 07:36:49;;;;;;;4.70;3.20;;;;;;;19.06;62.43;92816.94;2061530;69;20153;-79
2023/09/16 07:39:15;;;;;;;4.07;3.10;;;;;;;18.97;61.57;92813.09;2061518;69;20164;-80
2023/09/16 07:41:41;;;;;;;6.00;2.53;;;;;;;19.49;61.03;92818.22;2061476;69;20141;-78
2023/09/16 07:44:07;;;;;;;4.75;2.50;;;;;;;19.65;60.02;92823.69;2061430;69;20129;-80
2023/09/16 07:46:34;;;;;;;3.13;2.67;;;;;;;19.82;59.09;92817.06;2061632;69;20261;-80
2023/09/16 07:48:59;;;;;;;3.13;2.70;;;;;;;20.66;57.35;92817.16;2061496;69;20149;-77
2023/09/16 07:51:25;;;;;;;4.32;2.53;;;;;;;20.18;57.10;92822.31;2062137;69;20141;-81
2023/09/16 07:53:51;;;;;;;7.03;2.60;;;;;;;19.96;58.67;92811.00;2061344;69;20532;-79
2023/09/16 07:56:18;;;;;;;4.20;2.65;;;;;;;20.66;57.77;92822.16;2061503;69;20141;-80
2023/09/16 07:58:45;;;;;;;6.50;3.75;;;;;;;20.89;57.72;92823.44;2061507;69;20608;-76
2023/09/16 08:01:11;;;;;;;10.65;2.97;;;;;;;21.22;57.16;92824.97;2061486;69;20137;-80
2023/09/16 08:03:37;;;;;;;6.03;3.17;;;;;;;21.21;56.23;92832.06;2061451;69;20238;-78
2023/09/16 08:06:04;;;;;;;6.50;2.70;;;;;;;21.48;55.33;92831.28;2061330;69;20142;-77
2023/09/16 08:08:29;;;;;;;3.80;2.45;;;;;;;21.94;55.26;92833.72;2061328;69;20141;-77
2023/09/16 08:10:55;;;;;;;2.72;2.47;;;;;;;21.68;54.61;92836.03;2061484;69;20215;-78
2023/09/16 08:13:22;;;;;;;3.95;2.30;;;;;;;22.06;54.26;92828.22;2061571;69;20277;-77
2023/09/16 08:15:48;;;;;;;4.00;2.60;;;;;;;22.52;52.37;92833.44;2057874;69;20144;-78
2023/09/16 08:18:15;;;;;;;4.38;2.72;;;;;;;22.98;52.34;92823.50;2061533;69;20169;-78
2023/09/16 08:20:42;;;;;;;4.25;2.70;;;;;;;22.98;51.56;92824.22;2061588;69;20165;-78
2023/09/16 08:23:09;;;;;;;4.65;2.78;;;;;;;22.99;51.95;92819.94;2057967;69;20613;-82
2023/09/16 08:25:35;;;;;;;4.38;2.45;;;;;;;23.66;50.62;92811.63;2061201;69;20125;-79
2023/09/16 08:28:00;;;;;;;3.20;2.40;;;;;;;23.58;51.26;92820.09;2061470;69;20145;-79
2023/09/16 08:30:27;;;;;;;2.30;2.10;;;;;;;23.66;50.02;92823.13;2061377;69;20207;-80
2023/09/16 08:32:53;;;;;;;2.78;2.10;;;;;;;24.09;48.49;92823.69;2061455;69;20137;-79
2023/09/16 08:35:18;;;;;;;2.90;2.03;;;;;;;24.03;46.97;92818.59;2057814;69;20218;-81
2023/09/16 08:37:44;;;;;;;2.90;2.03;;;;;;;24.35;47.16;92817.53;2061941;69;20134;-81
2023/09/16 08:40:11;;;;;;;3.58;2.00;;;;;;;24.63;46.97;92822.88;2061811;69;20497;-79
2023/09/16 08:42:39;;;;;;;2.33;2.13;;;;;;;25.18;46.69;92823.41;2061962;69;20156;-78
2023/09/16 08:45:10;;;;;;;2.65;2.40;;;;;;;25.36;44.95;92822.84;2058328;69;20258;-78
2023/09/16 08:47:48;;;;;;;2.42;2.22;;;;;;;25.44;45.12;92817.16;2061976;69;20244;-79
2023/09/16 08:50:18;;;;;;;2.70;2.45;;;;;;;25.58;44.13;92810.75;2062029;69;20252;-79
2023/09/16 08:52:49;;;;;;;4.10;2.70;;;;;;;25.20;44.67;92811.94;2061945;69;20175;-78
2023/09/16 08:55:19;;;;;;;2.95;2.50;;;;;;;25.74;44.25;92807.22;2058162;69;20239;-78
2023/09/16 08:57:57;;;;;;;3.78;2.35;;;;;;;26.39;44.96;92813.34;2061941;69;20138;-80
2023/09/16 09:00:24;;;;;;;3.42;2.10;;;;;;;26.56;44.83;92814.84;2061926;69;20209;-77
2023/09/16 09:02:52;;;;;;;2.45;2.25;;;;;;;27.00;43.09;92815.66;2061889;69;20149;-78
2023/09/16 09:05:20;;;;;;;2.78;2.33;;;;;;;26.76;41.98;92805.53;2061940;69;20149;-78
2023/09/16 09:07:45;;;;;;;2.70;2.40;;;;;;;27.18;41.21;92794.78;2058260;69;20506;-79
2023/09/16 09:10:12;;;;;;;3.08;2.13;;;;;;;27.31;40.56;92794.03;2061719;69;20149;-78
2023/09/16 09:12:40;;;;;;;2.30;1.90;;;;;;;27.25;41.72;92799.81;2061870;69;20199;-80
2023/09/16 09:15:14;;;;;;;3.53;2.10;;;;;;;27.56;42.33;92800.50;2058390;69;20173;-80
2023/09/16 09:17:55;;;;;;;3.75;2.40;;;;;;;28.00;41.37;92793.22;2061957;69;20138;-81
2023/09/16 09:20:23;;;;;;;3.58;2.30;;;;;;;28.35;40.82;92798.91;2061925;69;20141;-82
2023/09/16 09:22:51;;;;;;;2.40;2.20;;;;;;;28.25;41.32;92796.03;2061846;69;20204;-82
2023/09/16 09:25:22;;;;;;;3.47;2.20;;;;;;;28.91;39.41;92796.44;2058199;69;20164;-80
2023/09/16 09:27:49;;;;;;;2.40;2.20;;;;;;;29.74;39.47;92807.44;2061924;69;20152;-80
2023/09/16 09:30:15;;;;;;;4.10;2.42;;;;;;;28.69;39.95;92788.63;2061916;69;20203;-78
2023/09/16 09:32:47;;;;;;;2.63;2.42;;;;;;;28.29;38.66;92793.13;2061860;69;20137;-79
2023/09/16 09:35:13;;;;;;;3.05;2.40;;;;;;;27.29;39.84;92794.03;2058414;69;20171;-78
2023/09/16 09:37:40;;;;;;;2.58;2.38;;;;;;;28.49;39.70;92789.44;2061876;69;20153;-79
2023/09/16 09:40:09;;;;;;;2.53;2.33;;;;;;;29.31;40.26;92786.75;2061643;69;20649;-82
2023/09/16 09:42:44;;;;;;;2.45;2.25;;;;;;;28.99;38.42;92791.31;2061881;69;20165;-81
2023/09/16 09:45:11;;;;;;;2.65;2.28;;;;;;;28.53;37.61;92795.19;2058260;69;20159;-79
2023/09/16 09:47:37;;;;;;;2.13;1.92;;;;;;;29.52;37.66;92784.41;2061683;69;20206;-78
2023/09/16 09:50:05;;;;;;;2.70;2.22;;;;;;;30.46;38.52;92786.34;2061891;69;20149;-79
2023/09/16 09:52:31;;;;;;;2.35;2.15;;;;;;;31.04;35.98;92789.94;2058260;69;20168;-78
2023/09/16 09:54:58;;;;;;;2.83;2.10;;;;;;;31.03;34.48;92783.41;2061688;69;20203;-79
2023/09/16 09:57:25;;;;;;;3.03;2.40;;;;;;;30.52;36.40;92795.72;2061867;69;20157;-79
2023/09/16 09:59:50;;;;;;;2.50;2.30;;;;;;;29.42;37.19;92791.00;2058097;69;20130;-79
2023/09/16 10:02:16;;;;;;;3.33;2.20;;;;;;;31.37;36.15;92785.06;2061851;69;20137;-79
2023/09/16 10:04:42;;;;;;;2.35;2.10;;;;;;;32.19;32.87;92783.66;2061769;69;20576;-79
2023/09/16 10:07:08;;;;;;;3.28;2.10;;;;;;;32.95;33.48;92777.03;2061783;69;20215;-76
2023/09/16 10:09:34;;;;;;;4.13;2.38;;;;;;;32.27;32.18;92786.41;2061657;69;20544;-77
2023/09/16 10:12:03;;;;;;;2.42;2.00;;;;;;;31.76;32.52;92780.81;2061793;69;20137;-77
2023/09/16 10:14:32;;;;;;;3.40;2.25;;;;;;;32.93;32.85;92771.25;2061813;69;20147;-81
2023/09/16 10:16:58;;;;;;;2.40;2.20;;;;;;;33.44;31.93;92781.03;2058965;69;20153;-78
2023/09/16 10:19:25;;;;;;;2.10;1.90;;;;;;;31.44;32.58;92779.91;2054871;69;20162;-78
2023/09/16 10:21:52;;;;;;;2.35;2.10;;;;;;;31.15;32.40;92779.59;2058431;69;20600;-80
2023/09/16 10:24:18;;;;;;;2.50;1.98;;;;;;;33.24;31.57;92771.25;2054735;69;20129;-78
2023/09/16 10:26:43;;;;;;;2.00;1.80;;;;;;;33.50;29.14;92772.16;2058530;69;20256;-79
2023/09/16 10:29:12;;;;;;;1.90;1.80;;;;;;;35.50;29.28;92773.13;2058453;69;20204;-78
2023/09/16 10:31:41;;;;;;;2.00;1.90;;;;;;;36.87;28.03;92766.16;2058492;69;20621;-81
2023/09/16 10:34:09;;;;;;;1.92;1.83;;;;;;;36.56;27.40;92778.34;2054866;69;20584;-80
2023/09/16 10:36:35;;;;;;;2.20;2.00;;;;;;;36.69;27.26;92769.78;2058494;69;20540;-80
2023/09/16 10:39:02;;;;;;;2.05;1.83;;;;;;;38.38;26.41;92763.06;2058208;69;20156;-78
2023/09/16 10:41:29;;;;;;;3.75;1.70;;;;;;;38.68;26.08;92769.09;2058395;69;20172;-78
2023/09/16 10:43:57;;;;;;;2.80;1.70;;;;;;;38.87;25.74;92755.00;2052035;69;20149;-78
2023/09/16 10:46:23;;;;;;;3.80;1.90;;;;;;;36.26;26.96;92747.88;2054784;69;20200;-79
2023/09/16 10:48:51;;;;;;;1.58;1.45;;;;;;;39.59;25.36;92757.56;2058436;69;20220;-81
2023/09/16 10:51:23;;;;;;;2.85;1.90;;;;;;;40.62;23.58;92754.59;2058436;69;20153;-80
2023/09/16 10:54:03;;;;;;;2.22;1.70;;;;;;;40.42;23.18;92751.97;2058313;69;20149;-81
2023/09/16 10:56:36;;;;;;;1.58;1.48;;;;;;;40.74;22.73;92755.47;2058443;69;20134;-79
2023/09/16 10:59:09;;;;;;;2.13;1.50;;;;;;;42.06;21.39;92756.28;2054825;69;20169;-80
2023/09/16 11:01:39;;;;;;;1.50;1.40;;;;;;;41.80;21.95;92753.34;2058342;69;20149;-80
2023/09/16 11:04:15;;;;;;;1.50;1.40;;;;;;;42.69;20.65;92752.56;2058413;69;20627;-81
2023/09/16 11:06:41;;;;;;;1.50;1.40;;;;;;;40.56;22.83;92737.22;2058376;69;20225;-80
2023/09/16 11:09:06;;;;;;;1.30;1.20;;;;;;;43.14;19.56;92749.81;2058237;69;20150;-80
2023/09/16 11:11:34;;;;;;;1.25;1.15;;;;;;;43.95;19.86;92752.78;2058364;69;20148;-80
2023/09/16 11:14:03;;;;;;;1.92;1.40;;;;;;;43.75;19.51;92737.00;2054922;69;20597;-81
2023/09/16 11:16:28;;;;;;;1.25;1.15;;;;;;;40.62;21.29;92730.28;2054847;69;20225;-80
2023/09/16 11:18:55;;;;;;;1.45;1.30;;;;;;;45.11;19.35;92738.25;2058464;69;20261;-82
2023/09/16 11:21:21;;;;;;;1.25;1.13;;;;;;;46.09;17.53;92734.84;2058321;69;20138;-79
2023/09/16 11:23:48;;;;;;;2.67;1.20;;;;;;;43.63;20.69;92728.94;2058259;69;20137;-80
2023/09/16 11:26:18;;;;;;;1.33;1.23;;;;;;;43.12;18.88;92723.31;2058325;69;20176;-79
2023/09/16 11:28:44;;;;;;;4.32;1.35;;;;;;;44.63;18.83;92722.31;2058193;69;20691;-79
2023/09/16 11:31:11;;;;;;;2.50;1.20;;;;;;;42.83;20.54;92719.13;2058308;69;20145;-79
2023/09/16 11:33:38;;;;;;;1.23;1.13;;;;;;;45.95;18.31;92714.38;2058306;69;20215;-79